createdAt,value
2023-04-16T00:01:50.524Z,20.05
2023-04-16T00:04:16.568Z,20.50
2023-04-16T00:06:42.385Z,19.90
2023-04-16T00:09:08.290Z,19.38
2023-04-16T00:11:34.255Z,17.20
2023-04-16T00:14:00.103Z,20.83
2023-04-16T00:16:25.894Z,19.65
2023-04-16T00:18:51.688Z,20.85
2023-04-16T00:21:17.425Z,18.92
2023-04-16T00:23:43.206Z,18.67
2023-04-16T00:26:09.006Z,20.65
2023-04-16T00:28:35.033Z,18.58
2023-04-16T00:31:00.833Z,19.05
2023-04-16T00:33:26.908Z,17.70
2023-04-16T00:35:52.701Z,15.65
2023-04-16T00:38:18.420Z,20.35
2023-04-16T00:40:44.194Z,19.08
2023-04-16T00:43:09.978Z,19.15
2023-04-16T00:45:35.793Z,18.00
2023-04-16T00:48:01.731Z,19.35
2023-04-16T00:50:27.655Z,19.52
2023-04-16T00:52:53.405Z,18.35
2023-04-16T00:55:19.445Z,18.17
2023-04-16T00:57:45.504Z,20.50
2023-04-16T01:00:11.534Z,17.95
2023-04-16T01:02:37.565Z,18.50
2023-04-16T01:05:03.862Z,18.10
2023-04-16T01:07:29.592Z,20.42
2023-04-16T01:09:55.776Z,17.90
2023-04-16T01:12:21.654Z,16.58
2023-04-16T01:14:47.673Z,19.42
2023-04-16T01:17:13.610Z,17.77
2023-04-16T01:19:39.514Z,19.27
2023-04-16T01:22:05.436Z,18.58
2023-04-16T01:24:31.720Z,17.92
2023-04-16T01:26:58.506Z,19.45
2023-04-16T01:29:24.326Z,16.90
2023-04-16T01:31:50.337Z,17.85
2023-04-16T01:34:16.147Z,20.65
2023-04-16T01:36:41.887Z,18.70
2023-04-16T01:39:11.019Z,17.52
2023-04-16T01:41:36.904Z,18.45
2023-04-16T01:44:02.676Z,18.70
2023-04-16T01:46:30.332Z,18.80
2023-04-16T01:48:56.714Z,18.35
2023-04-16T01:51:23.400Z,18.50
2023-04-16T01:53:49.580Z,16.42
2023-04-16T01:56:15.438Z,18.02
2023-04-16T01:58:42.216Z,19.67
2023-04-16T02:01:08.394Z,18.05
2023-04-16T02:03:34.678Z,18.80
2023-04-16T02:06:03.564Z,19.02
2023-04-16T02:08:29.317Z,18.67
2023-04-16T02:10:56.398Z,18.20
2023-04-16T02:13:22.732Z,16.75
2023-04-16T02:15:49.246Z,18.73
2023-04-16T02:18:15.330Z,17.60
2023-04-16T02:20:45.440Z,16.85
2023-04-16T02:23:11.307Z,17.98
2023-04-16T02:25:40.662Z,17.55
2023-04-16T02:28:08.074Z,20.35
2023-04-16T02:30:34.591Z,16.80
2023-04-16T02:33:02.924Z,17.08
2023-04-16T02:35:28.758Z,18.35
2023-04-16T02:37:54.531Z,17.33
2023-04-16T02:40:20.362Z,16.60
2023-04-16T02:42:46.589Z,17.88
2023-04-16T02:45:12.450Z,19.90
2023-04-16T02:47:38.227Z,19.27
2023-04-16T02:50:04.102Z,19.15
2023-04-16T02:52:31.629Z,20.30
2023-04-16T02:54:57.359Z,19.88
2023-04-16T02:57:23.068Z,19.65
2023-04-16T02:59:48.787Z,18.50
2023-04-16T03:02:15.550Z,19.35
2023-04-16T03:04:41.550Z,20.08
2023-04-16T03:07:08.493Z,19.33
2023-04-16T03:09:34.709Z,20.17
2023-04-16T03:12:01.685Z,20.70
2023-04-16T03:14:27.521Z,19.67
2023-04-16T03:16:53.240Z,20.38
2023-04-16T03:19:18.967Z,20.52
2023-04-16T03:21:44.736Z,18.73
2023-04-16T03:24:10.822Z,19.67
2023-04-16T03:26:36.623Z,19.67
2023-04-16T03:29:02.563Z,20.55
2023-04-16T03:31:28.387Z,22.15
2023-04-16T03:33:54.145Z,21.45
2023-04-16T03:36:20.202Z,20.27
2023-04-16T03:38:45.941Z,23.08
2023-04-16T03:41:11.656Z,19.77
2023-04-16T03:43:37.394Z,22.08
2023-04-16T03:46:03.140Z,19.27
2023-04-16T03:48:28.955Z,22.15
2023-04-16T03:50:54.844Z,21.88
2023-04-16T03:53:20.618Z,20.98
2023-04-16T03:55:49.272Z,22.38
2023-04-16T03:58:14.987Z,19.73
2023-04-16T04:00:41.153Z,22.00
2023-04-16T04:03:07.092Z,21.83
2023-04-16T04:05:35.923Z,20.77
2023-04-16T04:08:01.654Z,20.83
2023-04-16T04:10:27.356Z,19.60
2023-04-16T04:12:53.106Z,19.23
2023-04-16T04:15:18.874Z,20.95
2023-04-16T04:17:44.712Z,19.63
2023-04-16T04:20:10.845Z,19.90
2023-04-16T04:22:36.564Z,21.15
2023-04-16T04:25:02.300Z,18.90
2023-04-16T04:27:28.037Z,20.77
2023-04-16T04:29:53.779Z,20.08
2023-04-16T04:32:19.616Z,19.17
2023-04-16T04:34:45.382Z,17.98
2023-04-16T04:37:11.152Z,20.33
2023-04-16T04:39:36.858Z,19.83
2023-04-16T04:42:02.669Z,18.50
2023-04-16T04:44:28.393Z,21.05
2023-04-16T04:46:54.236Z,19.55
2023-04-16T04:49:19.989Z,21.02
2023-04-16T04:51:45.848Z,22.38
2023-04-16T04:54:11.561Z,21.05
2023-04-16T04:56:37.477Z,20.98
2023-04-16T04:59:03.376Z,22.63
2023-04-16T05:01:32.702Z,20.63
2023-04-16T05:03:58.593Z,21.90
2023-04-16T05:06:24.581Z,21.92
2023-04-16T05:08:51.175Z,18.52
2023-04-16T05:11:17.229Z,21.25
2023-04-16T05:13:43.375Z,21.33
2023-04-16T05:16:09.557Z,22.27
2023-04-16T05:18:35.689Z,22.83
2023-04-16T05:21:01.631Z,20.88
2023-04-16T05:23:27.732Z,23.05
2023-04-16T05:25:53.990Z,20.42
2023-04-16T05:28:19.879Z,20.05
2023-04-16T05:31:11.307Z,20.77
2023-04-16T05:36:03.011Z,20.08
2023-04-16T05:38:28.983Z,21.13
2023-04-16T05:40:55.841Z,19.50
2023-04-16T05:43:21.773Z,21.63
2023-04-16T05:45:47.851Z,20.10
2023-04-16T05:48:13.985Z,21.02
2023-04-16T05:50:40.971Z,19.75
2023-04-16T05:53:07.899Z,17.50
2023-04-16T05:55:35.458Z,19.50
2023-04-16T05:58:04.452Z,17.48
2023-04-16T06:00:40.234Z,17.77
2023-04-16T06:03:09.718Z,18.42
2023-04-16T06:08:19.288Z,18.65
2023-04-16T06:10:46.823Z,17.33
2023-04-16T06:13:13.115Z,19.00
2023-04-16T06:15:39.028Z,17.58
2023-04-16T06:18:05.309Z,18.13
2023-04-16T06:20:31.939Z,18.13
2023-04-16T06:22:58.092Z,17.27
2023-04-16T06:25:25.005Z,17.27
2023-04-16T06:27:51.351Z,18.23
2023-04-16T06:30:22.791Z,15.25
2023-04-16T06:32:48.901Z,18.33
2023-04-16T06:35:15.865Z,17.08
2023-04-16T06:37:41.974Z,18.95
2023-04-16T06:40:08.715Z,18.00
2023-04-16T06:42:39.894Z,19.05
2023-04-16T06:45:06.095Z,18.23
2023-04-16T06:47:32.078Z,20.55
2023-04-16T06:50:00.521Z,18.10
2023-04-16T06:52:26.482Z,16.67
2023-04-16T06:54:52.411Z,20.25
2023-04-16T06:57:18.582Z,18.13
2023-04-16T06:59:44.827Z,17.23
2023-04-16T07:02:48.037Z,15.95
2023-04-16T07:05:14.271Z,16.30
2023-04-16T07:07:42.178Z,16.65
2023-04-16T07:10:11.247Z,15.38
2023-04-16T07:12:37.615Z,17.42
2023-04-16T07:15:06.008Z,17.52
2023-04-16T07:17:34.155Z,18.17
2023-04-16T07:20:00.690Z,18.35
2023-04-16T07:22:29.831Z,17.05
2023-04-16T07:24:56.920Z,13.80
2023-04-16T07:27:24.356Z,19.10
2023-04-16T07:29:52.105Z,15.38
2023-04-16T07:32:19.572Z,17.80
2023-04-16T07:34:47.268Z,15.73
2023-04-16T07:37:17.083Z,16.75
2023-04-16T07:39:43.870Z,16.65
2023-04-16T07:42:10.937Z,16.92
2023-04-16T07:44:38.046Z,16.73
2023-04-16T07:47:05.583Z,16.73
2023-04-16T07:49:31.991Z,16.08
2023-04-16T07:52:00.156Z,15.20
2023-04-16T07:54:29.007Z,16.38
2023-04-16T07:56:55.923Z,16.33
2023-04-16T07:59:24.008Z,15.93
2023-04-16T08:01:52.680Z,16.80
2023-04-16T08:04:24.336Z,16.05
2023-04-16T08:06:51.286Z,16.75
2023-04-16T08:09:34.109Z,16.98
2023-04-16T08:12:00.515Z,15.63
2023-04-16T08:14:27.093Z,18.55
2023-04-16T08:16:58.207Z,16.92
2023-04-16T08:22:05.570Z,16.33
2023-04-16T08:24:39.474Z,15.98
2023-04-16T08:27:17.865Z,16.08
2023-04-16T08:29:47.373Z,15.90
2023-04-16T08:32:37.174Z,14.48
2023-04-16T08:35:03.873Z,14.65
2023-04-16T08:37:30.128Z,13.15
2023-04-16T08:39:57.478Z,13.68
2023-04-16T08:42:48.996Z,13.45
2023-04-16T08:45:17.093Z,12.60
2023-04-16T08:47:51.920Z,12.85
2023-04-16T09:04:52.320Z,13.50
2023-04-16T09:07:20.782Z,11.57
2023-04-16T09:09:49.492Z,11.98
2023-04-16T09:14:57.868Z,11.07
2023-04-16T09:23:21.555Z,9.98
2023-04-16T09:25:48.793Z,12.07
2023-04-16T09:28:48.127Z,12.05
2023-04-16T09:31:18.225Z,11.70
2023-04-16T09:34:03.998Z,11.30
2023-04-16T09:36:37.473Z,11.65
2023-04-16T09:39:08.135Z,11.25
2023-04-16T09:41:36.759Z,11.52
2023-04-16T09:44:06.760Z,10.98
2023-04-16T09:46:43.593Z,13.45
2023-04-16T09:49:13.778Z,11.75
2023-04-16T09:51:46.511Z,13.40
2023-04-16T09:59:47.608Z,13.90
2023-04-16T10:02:16.695Z,14.73
2023-04-16T10:07:36.777Z,12.27
2023-04-16T10:10:06.882Z,13.32
2023-04-16T10:12:37.506Z,14.45
2023-04-16T10:15:04.498Z,13.23
2023-04-16T10:17:33.005Z,13.27
2023-04-16T10:20:07.233Z,11.93
2023-04-16T10:22:34.492Z,11.25
2023-04-16T10:25:03.051Z,11.13
2023-04-16T10:27:29.526Z,13.27
2023-04-16T10:30:08.734Z,11.73
2023-04-16T10:32:43.817Z,10.80
2023-04-16T10:35:17.469Z,12.15
2023-04-16T10:40:29.049Z,12.20
2023-04-16T10:43:12.525Z,13.15
2023-04-16T10:45:38.930Z,13.07
2023-04-16T10:48:16.967Z,13.18
2023-04-16T10:50:43.923Z,12.18
2023-04-16T10:53:23.945Z,12.02
2023-04-16T10:55:57.099Z,14.13
2023-04-16T10:58:26.701Z,13.50
2023-04-16T11:04:23.328Z,12.63
2023-04-16T11:07:09.359Z,13.43
2023-04-16T11:09:54.932Z,12.00
2023-04-16T11:12:46.530Z,11.63
2023-04-16T11:15:16.319Z,11.45
2023-04-16T12:24:35.385Z,9.45
2023-04-16T12:27:03.425Z,10.00
2023-04-16T12:29:29.456Z,9.43
2023-04-16T12:31:55.797Z,9.85
2023-04-16T12:34:46.587Z,10.40
2023-04-16T12:37:11.957Z,9.20
2023-04-16T12:39:39.224Z,9.77
2023-04-16T12:42:10.466Z,11.10
2023-04-16T12:44:37.519Z,10.13
2023-04-16T12:47:08.017Z,9.23
2023-04-16T12:49:35.469Z,9.35
2023-04-16T12:52:01.999Z,10.77
2023-04-16T12:54:31.621Z,10.50
2023-04-16T12:57:00.239Z,8.38
2023-04-16T13:02:11.230Z,9.15
2023-04-16T13:04:38.777Z,9.15
2023-04-16T13:07:11.075Z,8.98
2023-04-16T13:09:39.821Z,8.73
2023-04-16T13:14:48.193Z,8.63
2023-04-16T13:20:36.581Z,8.73
2023-04-16T13:23:05.170Z,8.98
2023-04-16T13:25:31.263Z,9.00
2023-04-16T13:27:57.351Z,9.27
2023-04-16T13:36:06.051Z,8.57
2023-04-16T13:38:33.204Z,8.90
2023-04-16T13:41:01.555Z,10.60
2023-04-16T13:46:11.357Z,9.95
2023-04-16T13:48:43.025Z,9.73
2023-04-16T13:51:10.556Z,10.93
2023-04-16T13:53:44.889Z,10.43
2023-04-16T13:56:12.769Z,10.75
2023-04-16T13:58:39.088Z,9.95
2023-04-16T14:01:06.092Z,9.95
2023-04-16T14:03:37.770Z,11.00
2023-04-16T14:06:04.372Z,9.55
2023-04-16T14:08:31.421Z,9.80
2023-04-16T14:10:57.693Z,9.25
2023-04-16T14:13:24.347Z,8.90
2023-04-16T14:16:37.748Z,8.57
2023-04-16T14:19:04.870Z,9.05
2023-04-16T14:21:30.985Z,8.65
2023-04-16T14:23:57.201Z,9.55
2023-04-16T14:29:07.929Z,9.20
2023-04-16T14:31:38.411Z,8.45
2023-04-16T14:34:06.757Z,8.52
2023-04-16T14:36:33.336Z,8.60
2023-04-16T14:39:05.825Z,7.55
2023-04-16T14:41:32.023Z,8.15
2023-04-16T14:43:59.050Z,8.10
2023-04-16T14:46:34.663Z,9.85
2023-04-16T14:49:02.769Z,8.88
2023-04-16T14:51:33.520Z,7.78
2023-04-16T14:56:27.694Z,8.63
2023-04-16T14:58:59.650Z,7.03
2023-04-16T15:04:10.488Z,8.40
2023-04-16T15:06:46.607Z,7.47
2023-04-16T15:09:17.554Z,6.22
2023-04-16T15:14:21.800Z,6.40
2023-04-16T15:20:12.690Z,5.40
2023-04-16T15:25:28.025Z,5.38
2023-04-16T15:27:54.811Z,5.05
2023-04-16T15:30:24.701Z,5.10
2023-04-16T15:32:52.011Z,4.57
2023-04-16T15:35:21.205Z,4.63
2023-04-16T15:37:48.803Z,4.95
2023-04-16T15:40:19.087Z,4.53
2023-04-16T15:42:45.801Z,4.72
2023-04-16T15:45:17.127Z,4.68
2023-04-16T15:47:47.653Z,5.47
2023-04-16T15:50:15.589Z,4.63
2023-04-16T15:52:42.710Z,4.70
2023-04-16T15:55:13.507Z,4.85
2023-04-16T15:57:40.290Z,4.38
2023-04-16T16:00:14.183Z,5.25
2023-04-16T16:02:42.309Z,5.80
2023-04-16T16:05:09.896Z,4.13
2023-04-16T16:07:44.750Z,4.72
2023-04-16T16:10:12.562Z,5.65
2023-04-16T16:12:39.681Z,4.60
2023-04-16T16:15:06.525Z,4.88
2023-04-16T16:17:33.960Z,3.33
2023-04-16T16:20:02.009Z,4.18
2023-04-16T16:22:28.474Z,3.65
2023-04-16T16:24:57.093Z,4.40
2023-04-16T16:27:23.604Z,4.50
2023-04-16T16:29:50.984Z,4.63
2023-04-16T16:37:26.363Z,3.90
2023-04-16T16:39:54.204Z,4.97
2023-04-16T16:42:21.604Z,4.63
2023-04-16T16:44:49.074Z,4.10
2023-04-16T16:47:15.915Z,4.22
2023-04-16T16:49:42.699Z,4.00
2023-04-16T16:52:09.313Z,3.65
2023-04-16T16:54:36.205Z,4.35
2023-04-16T18:42:35.792Z,8.75
2023-04-16T18:45:06.405Z,7.50
2023-04-16T18:47:34.441Z,7.80
2023-04-16T18:50:04.765Z,7.95
2023-04-16T18:52:32.062Z,7.45
2023-04-16T19:56:18.493Z,8.13
2023-04-16T20:06:59.670Z,7.55
2023-04-16T20:09:26.079Z,7.95
2023-04-16T20:20:39.928Z,6.15
2023-04-16T20:23:07.364Z,7.40
2023-04-16T20:25:36.074Z,7.50
2023-04-16T20:28:03.293Z,6.15
2023-04-16T20:33:10.993Z,6.75
2023-04-16T20:38:24.057Z,5.10
2023-04-16T20:41:00.446Z,5.43
2023-04-16T20:43:30.035Z,6.40
2023-04-16T20:46:14.535Z,6.88
2023-04-16T20:48:43.248Z,5.50
2023-04-16T20:51:12.423Z,6.03
2023-04-16T20:53:38.671Z,6.03
2023-04-16T20:58:47.106Z,6.68
2023-04-16T21:01:14.183Z,6.53
2023-04-16T21:03:40.339Z,6.00
2023-04-16T21:06:06.964Z,6.53
2023-04-16T21:08:33.405Z,6.00
2023-04-16T21:10:59.626Z,5.30
2023-04-16T21:13:28.229Z,6.10
2023-04-16T21:16:09.298Z,6.40
2023-04-16T21:18:36.730Z,5.97
2023-04-16T21:21:05.068Z,6.15
2023-04-16T21:23:31.512Z,4.53
2023-04-16T21:25:57.763Z,5.82
2023-04-16T21:28:27.040Z,6.60
2023-04-16T21:30:54.120Z,4.72
2023-04-16T21:33:20.412Z,6.05
2023-04-16T21:35:50.940Z,4.30
2023-04-16T21:38:17.925Z,5.07
2023-04-16T21:40:47.904Z,6.40
2023-04-16T21:43:16.352Z,6.25
2023-04-16T21:45:45.515Z,5.18
2023-04-16T21:48:16.436Z,6.55
2023-04-16T21:50:42.331Z,5.93
2023-04-16T21:53:09.611Z,5.50
2023-04-16T21:55:35.846Z,6.65
2023-04-16T21:58:04.906Z,5.88
2023-04-16T22:00:31.142Z,5.45
2023-04-16T22:02:59.527Z,6.50
2023-04-16T22:05:26.613Z,7.10
2023-04-16T22:07:52.538Z,5.85
2023-04-16T22:10:18.339Z,5.68
2023-04-16T22:12:45.185Z,7.00
2023-04-16T22:15:11.409Z,6.65
2023-04-16T22:17:38.005Z,7.43
2023-04-16T22:20:11.606Z,5.65
2023-04-16T22:22:37.662Z,5.60
2023-04-16T22:25:03.689Z,6.55
2023-04-16T22:27:29.425Z,5.85
2023-04-16T22:29:55.250Z,6.13
2023-04-16T22:32:21.337Z,7.20
2023-04-16T22:34:47.206Z,6.93
2023-04-16T22:37:12.947Z,6.75
2023-04-16T22:39:38.663Z,6.43
2023-04-16T22:42:04.470Z,6.60
2023-04-16T22:44:30.649Z,6.88
2023-04-16T22:46:56.451Z,7.90
2023-04-16T22:49:22.291Z,6.53
2023-04-16T22:51:48.140Z,6.55
2023-04-16T22:54:14.090Z,6.28
2023-04-16T22:56:40.209Z,7.45
2023-04-16T22:59:06.417Z,7.22
2023-04-16T23:01:32.985Z,6.47
2023-04-16T23:03:58.812Z,7.25
2023-04-16T23:06:26.504Z,6.93
2023-04-16T23:08:52.579Z,5.95
2023-04-16T23:11:18.382Z,7.18
2023-04-16T23:13:44.119Z,6.97
2023-04-16T23:16:10.107Z,8.30
2023-04-16T23:18:36.243Z,6.88
2023-04-16T23:21:02.002Z,6.97
2023-04-16T23:23:27.751Z,6.72
2023-04-16T23:25:53.756Z,6.95
2023-04-16T23:28:19.787Z,7.22
2023-04-16T23:30:45.512Z,6.95
2023-04-16T23:33:11.221Z,7.38
2023-04-16T23:35:36.944Z,7.88
2023-04-16T23:38:02.769Z,8.63
2023-04-16T23:40:28.814Z,7.50
2023-04-16T23:42:54.700Z,8.20
2023-04-16T23:45:20.446Z,6.75
2023-04-16T23:47:46.341Z,7.70
2023-04-16T23:50:12.284Z,7.78
2023-04-16T23:52:38.101Z,7.38
2023-04-16T23:55:04.115Z,7.47
2023-04-16T23:57:29.979Z,8.00
2023-04-16T23:59:55.691Z,7.85
